Main page
METAR-TAF:

METAR-TAF

Airports :

Cornwall Airport Newquay

Newquay Cornwall, England

latitude: 50-26N, longitude: 005-00W, elevation: 119 m

Current weather observation

The report was made 27 minutes ago, at 16:20 UTC
Wind 9 kt from the Northeast
Temperature 5°C
Humidity 70%
Pressure 1005 hPa
Visibility 10 km or more
Few clouds at a height of 3500 ft

METAR: EGHQ 201620Z 04009KT 9999 FEW035 05/00 Q1005

Time: 16:47 (16:47 UTC)

Forecast

The report was made 2 hours and 51 minutes ago, at 13:56 UTC
Forecast valid from 20 at 15 UTC to 20 at 22 UTC
Wind 14 kt from the Northeast
Visibility 10 km or more
Scattered clouds at a height of 3000 ft
Temporary
from 20 at 15 UTC to 20 at 18 UTC
Wind 17 kt from the East/Northeast with gusts up to 27 kt
Probability 30% :
Temporary
from 20 at 15 UTC to 20 at 22 UTC
Visibility: 7000 m
rain showers

TAF: EGHQ 201356Z 2015/2022 05014KT 9999 SCT030 TEMPO 2015/2018 07017G27KT PROB30 TEMPO 2015/2022 7000 SHRA

Weather observations and forecasts of more than 4000 airports (METAR and TAF reports).

The available stations are represented by yellow and red dots on the map.

Hover mouse over dot to see the name of the station.

Then click to see weather observations and forecasts.

To change the map : click on the green buttons with a black cross to zoom in, on the green button with a dash to zoom out, or on the green arrows for adjacent maps.


METAR-TAF: